Ana Sayfa
METAR-TAF:

METAR-TAF

Havaalanları :

Teller, Alaska, Amerika Birleşik Devletleri

Enlem: 65-14-25N, Boylam: 166-20-22W, yükseklik: 90 m

Güncel hava durumu gözlemi

Rapor saat 11:56 UTC de 25 dakika önce yapıldı.
Rüzgar kuzey/kuzeybatıdan 23 kt
Sıcaklık -15°C
Nem 92%
Basınç 996 hPa
Görüş mesafesi: 6.4 km
500 ft yükseklikte az bulutlu
9500 ft yükseklikte çok bulutlu
hafif kar, Pus

METAR: PATE 121156Z AUTO 33023KT 4SM -SN BR FEW005 OVC095 M15/M16 A2940 RMK AO2 PK WND 32028/1111 SLP966 P0000 60000 T11501161 11094 21150 51043 FZRANO

Saat: 04:21 (12:21 UTC)


TAF: eksik

4.000'den fazla havaalanı için hava durumu gözlemleri ve tahminleri (METAR ve TAF raporları).

Kullanılabilir istasyonlar harita üzerinde sarı ve kırmızı noktalarla gösterilir.

İstasyonun adını görmek için fareyi noktanın üzerinde gezdirin.

Sonrasında hava gözlem ve tahminlerini görmek için tıklayın.

Haritayı değiştirmek için: yaklaştırmak için siyah artı işaretli yeşil düğmeye ve uzaklaştırmak için de eksi işaretli düğmeye hızla tıklayın; bitişik haritalar için yeşil okları kullanın.


METAR-TAF: